This is the latest recevied weather packets stored in our database for station/object DC0PP-10. If no packets are shown the sender has not sent any weather packets the latest 10 day(s).
| Time | Temp. | Humidity | Pressure | Rain* | Wind** | Luminosity | Snow |
|---|---|---|---|---|---|---|---|
| 1777865147 | 12.78° C | 80% | 1016.3 hPa | - | - | - | - |
| 1777864246 | 12.78° C | 77% | 1016.3 hPa | - | - | - | - |
| 1777863346 | 12.78° C | 77% | 1016.4 hPa | - | - | - | - |
| 1777862446 | 12.78° C | 77% | 1016.3 hPa | - | - | - | - |
| 1777861546 | 12.78° C | 79% | 1016.4 hPa | - | - | - | - |
| 1777860646 | 12.78° C | 80% | 1016.4 hPa | - | - | - | - |
| 1777859746 | 12.78° C | 80% | 1016.4 hPa | - | - | - | - |
| 1777858846 | 12.78° C | 79% | 1016.3 hPa | - | - | - | - |
| 1777857946 | 12.78° C | 78% | 1016.4 hPa | - | - | - | - |
| 1777857045 | 13.89° C | 74% | 1016.3 hPa | - | - | - | - |
| 1777856145 | 13.89° C | 74% | 1016.3 hPa | - | - | - | - |
| 1777855244 | 13.89° C | 75% | 1016.2 hPa | - | - | - | - |
| 1777854347 | 15° C | 70% | 1016.3 hPa | - | - | - | - |
| 1777853447 | 15° C | 68% | 1016.2 hPa | - | - | - | - |
| 1777852547 | 15.56° C | 66% | 1016.2 hPa | - | - | - | - |
| 1777851647 | 15.56° C | 67% | 1016.2 hPa | - | - | - | - |
| 1777850747 | 16.11° C | 65% | 1016.2 hPa | - | - | - | - |
| 1777849847 | 16.67° C | 62% | 1016.1 hPa | - | - | - | - |
| 1777848947 | 16.67° C | 62% | 1016.1 hPa | - | - | - | - |
| 1777848046 | 16.67° C | 62% | 1016.2 hPa | - | - | - | - |
| 1777847146 | 16.67° C | 63% | 1016 hPa | - | - | - | - |
| 1777846246 | 16.67° C | 61% | 1016.1 hPa | - | - | - | - |
| 1777845346 | 17.22° C | 60% | 1016.1 hPa | - | - | - | - |
| 1777844446 | 17.22° C | 57% | 1016.2 hPa | - | - | - | - |
| 1777843546 | 17.22° C | 57% | 1016.1 hPa | - | - | - | - |
* Rain since midnight (hover to see other rain measurements)
** Current wind speed in m/s (hover to see current wind gust speed)